Terre Haute, IN (47801)

3:09 AM EST on December 08, 2016 (GMT -0500)
Ohio Boulevard | | Change Station

Elev 502 ft 39.47 °N, 87.39 °W | Updated 48 seconds ago

Overcast
Overcast
26.1 °F
Feels Like 17 °F
N
9.0
Wind Variable Wind from NNW

Today
High -- | Low -- °F
--% Chance of Precip.
Yesterday
High -- | Low -- °F
Precip. -- in
Pressure 30.30 in
Visibility 10.0 miles
Clouds Few 10000 ft
Overcast 12000 ft
Windchill 17 °F
Dew Point 18 °F
Humidity 71%
Rainfall 0.00 in
Snow Depth Not available.
7:57 AM 5:25 PM
First Quarter, 61% visible
METAR KHUF 080753Z 30015G24KT 10SM FEW100 OVC120 M03/M09 A3028 RMK AO2 SLP258 T10281094
Pressure 30.30 in
Visibility 10.0 miles
Clouds Few 10000 ft
Overcast 12000 ft
Windchill 17 °F
Dew Point 18 °F
Humidity 71%
Rainfall 0.00 in
Snow Depth Not available.
7:57 AM 5:25 PM
First Quarter, 61% visible
METAR KHUF 080753Z 30015G24KT 10SM FEW100 OVC120 M03/M09 A3028 RMK AO2 SLP258 T10281094

10-Day Weather Forecast

Almanac

Astronomy

Dec. 08, 2016 Rise Set
Actual Time
Civil Twilight
Nautical Twilight
Astronomical Twilight
Moon
Length of Visible Light
Length of Day
Tomorrow will be .
, % of the Moon is Illuminated

Today's Extremes

State Highs State Lows

Community

WunderPhotos

Upload Photos

1,956,259 photos uploaded!

WunderBlog® & News

Nearby

Air Quality

  Air Quality AQ Index Pollutant
Not available.

Snow Depth

Station Depth Elevation

Earthquake Activity

City Distance Mag. Time & Date
Minimum magnitude displayed is 2.5.

Coastal Water Temperatures

Place Temperature

Stations

Nearby Weather Stations

Station Location Temp. Windchill Dew Point Humidity Wind Precip. Elev Updated Type
                   

Watches & Warnings

There are currently no watches in effect.